Map

Track Data

SID SEASON NUMBER BASIN SUBBASIN NAME ISO_TIME NATURE LAT LON WMO_WIND WMO_PRES WMO_AGENCY TRACK_TYPE DIST2LAND LANDFALL IFLAG USA_AGENCY USA_ATCF_ID USA_LAT USA_LON USA_RECORD USA_STATUS USA_WIND USA_PRES USA_SSHS USA_R34_NE USA_R34_SE USA_R34_SW USA_R34_NW USA_R50_NE USA_R50_SE USA_R50_SW USA_R50_NW USA_R64_NE USA_R64_SE USA_R64_SW USA_R64_NW USA_POCI USA_ROCI USA_RMW USA_EYE TOKYO_LAT TOKYO_LON TOKYO_GRADE TOKYO_WIND TOKYO_PRES TOKYO_R50_DIR TOKYO_R50_LONG TOKYO_R50_SHORT TOKYO_R30_DIR TOKYO_R30_LONG TOKYO_R30_SHORT TOKYO_LAND CMA_LAT CMA_LON CMA_CAT CMA_WIND CMA_PRES HKO_LAT HKO_LON HKO_CAT HKO_WIND HKO_PRES NEWDELHI_LAT NEWDELHI_LON NEWDELHI_GRADE NEWDELHI_WIND NEWDELHI_PRES NEWDELHI_CI NEWDELHI_DP NEWDELHI_POCI REUNION_LAT REUNION_LON REUNION_TYPE REUNION_WIND REUNION_PRES REUNION_TNUM REUNION_CI REUNION_RMW REUNION_R34_NE REUNION_R34_SE REUNION_R34_SW REUNION_R34_NW REUNION_R50_NE REUNION_R50_SE REUNION_R50_SW REUNION_R50_NW REUNION_R64_NE REUNION_R64_SE REUNION_R64_SW REUNION_R64_NW BOM_LAT BOM_LON BOM_TYPE BOM_WIND BOM_PRES BOM_TNUM BOM_CI BOM_RMW BOM_R34_NE BOM_R34_SE BOM_R34_SW BOM_R34_NW BOM_R50_NE BOM_R50_SE BOM_R50_SW BOM_R50_NW BOM_R64_NE BOM_R64_SE BOM_R64_SW BOM_R64_NW BOM_ROCI BOM_POCI BOM_EYE BOM_POS_METHOD BOM_PRES_METHOD NADI_LAT NADI_LON NADI_CAT NADI_WIND NADI_PRES WELLINGTON_LAT WELLINGTON_LON WELLINGTON_WIND WELLINGTON_PRES DS824_LAT DS824_LON DS824_STAGE DS824_WIND DS824_PRES TD9636_LAT TD9636_LON TD9636_STAGE TD9636_WIND TD9636_PRES TD9635_LAT TD9635_LON TD9635_WIND TD9635_PRES TD9635_ROCI NEUMANN_LAT NEUMANN_LON NEUMANN_CLASS NEUMANN_WIND NEUMANN_PRES MLC_LAT MLC_LON MLC_CLASS MLC_WIND MLC_PRES USA_GUST BOM_GUST BOM_GUST_PER REUNION_GUST REUNION_GUST_PER USA_SEAHGT USA_SEARAD_NE USA_SEARAD_SE USA_SEARAD_SW USA_SEARAD_NW STORM_SPEED STORM_DIR
1856224N14330 1856 5 NA NA NOT_NAMED 1856-08-11 00:00:00 TS 14.0000 -30.0000 main 1349 1349 _____________O -1 14.0000 -30.0000 TD 30 16 282
1856224N14330 1856 5 NA NA NOT_NAMED 1856-08-11 03:00:00 TS 14.1630 -30.7997 main 1433 1433 _____________P -1 14.1630 -30.7997 TD 30 16 281
1856224N14330 1856 5 NA NA NOT_NAMED 1856-08-11 06:00:00 TS 14.3000 -31.6000 main 1519 1519 _____________O -1 14.3000 -31.6000 TD 30 16 279
1856224N14330 1856 5 NA NA NOT_NAMED 1856-08-11 09:00:00 TS 14.3997 -32.4002 main 1604 1604 _____________P -1 14.3997 -32.4002 TD 30 16 277
1856224N14330 1856 5 NA NA NOT_NAMED 1856-08-11 12:00:00 TS 14.5000 -33.2000 main 1689 1689 _____________O -1 14.5000 -33.2000 TD 30 16 279
1856224N14330 1856 5 NA NA NOT_NAMED 1856-08-11 15:00:00 TS 14.6497 -33.9999 main 1775 1775 _____________P -1 14.6497 -33.9999 TD 30 16 281
1856224N14330 1856 5 NA NA NOT_NAMED 1856-08-11 18:00:00 TS 14.8000 -34.8000 main 1860 1860 _____________O -1 14.8000 -34.8000 TD 30 16 279
1856224N14330 1856 5 NA NA NOT_NAMED 1856-08-11 21:00:00 TS 14.8997 -35.6002 main 1946 1946 _____________P -1 14.8997 -35.6002 TD 30 16 277
1856224N14330 1856 5 NA NA NOT_NAMED 1856-08-12 00:00:00 TS 15.0000 -36.4000 main 2024 1961 _____________O -1 15.0000 -36.4000 TD 30 16 279
1856224N14330 1856 5 NA NA NOT_NAMED 1856-08-12 03:00:00 TS 15.1497 -37.1999 main 1961 1907 _____________P -1 15.1497 -37.1999 TD 30 16 281
1856224N14330 1856 5 NA NA NOT_NAMED 1856-08-12 06:00:00 TS 15.3000 -38.0000 main 1907 1848 _____________O -1 15.3000 -38.0000 TD 30 16 279
1856224N14330 1856 5 NA NA NOT_NAMED 1856-08-12 09:00:00 TS 15.3997 -38.8002 main 1848 1792 _____________P -1 15.3997 -38.8002 TD 30 16 277
1856224N14330 1856 5 NA NA NOT_NAMED 1856-08-12 12:00:00 TS 15.5000 -39.6000 main 1792 1738 _____________O -1 15.5000 -39.6000 TD 30 16 279
1856224N14330 1856 5 NA NA NOT_NAMED 1856-08-12 15:00:00 TS 15.6498 -40.4074 main 1738 1696 _____________P -1 15.6498 -40.4074 TD 30 16 281
1856224N14330 1856 5 NA NA NOT_NAMED 1856-08-12 18:00:00 TS 15.8000 -41.2000 main 1696 1649 _____________O -1 15.8000 -41.2000 TD 30 16 280
1856224N14330 1856 5 NA NA NOT_NAMED 1856-08-12 21:00:00 TS 15.9151 -42.0025 main 1649 1612 _____________P -1 15.9151 -42.0025 TD 30 15 278
1856224N14330 1856 5 NA NA NOT_NAMED 1856-08-13 00:00:00 TS 16.0000 -42.7000 main 1612 1587 _____________O -1 16.0000 -42.7000 TD 30 12 277
1856224N14330 1856 5 NA NA NOT_NAMED 1856-08-13 03:00:00 TS 16.0571 -43.1951 main 1590 1566 _____________P -1 16.0571 -43.1951 TD 32 9 277
1856224N14330 1856 5 NA NA NOT_NAMED 1856-08-13 06:00:00 TS 16.1000 -43.6000 main 1566 1540 _____________O -1 16.1000 -43.6000 TS 35 8 276
1856224N14330 1856 5 NA NA NOT_NAMED 1856-08-13 09:00:00 TS 16.1499 -44.0500 main 1533 1516 _____________P -1 16.1499 -44.0500 TS 37 9 277
1856224N14330 1856 5 NA NA NOT_NAMED 1856-08-13 12:00:00 TS 16.2000 -44.5000 main 1516 1491 _____________O -1 16.2000 -44.5000 TS 40 9 277
1856224N14330 1856 5 NA NA NOT_NAMED 1856-08-13 15:00:00 TS 16.2574 -44.9500 main 1500 1470 _____________P -1 16.2574 -44.9500 TS 45 9 277
1856224N14330 1856 5 NA NA NOT_NAMED 1856-08-13 18:00:00 TS 16.3000 -45.4000 main 1470 1447 _____________O -1 16.3000 -45.4000 TS 50 9 273
1856224N14330 1856 5 NA NA NOT_NAMED 1856-08-13 21:00:00 TS 16.2999 -45.8501 main 1442 1420 _____________P -1 16.2999 -45.8501 TS 52 9 270
1856224N14330 1856 5 NA NA NOT_NAMED 1856-08-14 00:00:00 TS 16.3000 -46.3000 main 1420 1400 _____________O -1 16.3000 -46.3000 TS 55 9 273
1856224N14330 1856 5 NA NA NOT_NAMED 1856-08-14 03:00:00 TS 16.3499 -46.7499 main 1400 1385 _____________P -1 16.3499 -46.7499 TS 57 9 277
1856224N14330 1856 5 NA NA NOT_NAMED 1856-08-14 06:00:00 TS 16.4000 -47.2000 main 1385 1366 _____________O -1 16.4000 -47.2000 TS 60 9 274
1856224N14330 1856 5 NA NA NOT_NAMED 1856-08-14 09:00:00 TS 16.4074 -47.6501 main 1361 1344 _____________P -1 16.4074 -47.6501 TS 60 9 270
1856224N14330 1856 5 NA NA NOT_NAMED 1856-08-14 12:00:00 TS 16.4000 -48.1000 main 1344 1328 _____________O -1 16.4000 -48.1000 TS 60 9 269
1856224N14330 1856 5 NA NA NOT_NAMED 1856-08-14 15:00:00 TS 16.3924 -48.5426 main 1328 1305 _____________P -1 16.3924 -48.5426 TS 62 9 270
1856224N14330 1856 5 NA NA NOT_NAMED 1856-08-14 18:00:00 TS 16.4000 -49.0000 main 1305 1282 _____________O -1 16.4000 -49.0000 HU 65 9 274
1856224N14330 1856 5 NA NA NOT_NAMED 1856-08-14 21:00:00 TS 16.4500 -49.4999 main 1282 1272 _____________P -1 16.4500 -49.4999 HU 65 10 276
1856224N14330 1856 5 NA NA NOT_NAMED 1856-08-15 00:00:00 TS 16.5000 -50.0000 main 1272 1257 _____________O -1 16.5000 -50.0000 HU 65 9 274
1856224N14330 1856 5 NA NA NOT_NAMED 1856-08-15 03:00:00 TS 16.5074 -50.4576 main 1253 1240 _____________P -1 16.5074 -50.4576 HU 65 9 270
1856224N14330 1856 5 NA NA NOT_NAMED 1856-08-15 06:00:00 TS 16.5000 -50.9000 main 1240 1228 _____________O -1 16.5000 -50.9000 HU 65 8 269
1856224N14330 1856 5 NA NA NOT_NAMED 1856-08-15 09:00:00 TS 16.4924 -51.3426 main 1228 1187 _____________P -1 16.4924 -51.3426 HU 67 9 270
1856224N14330 1856 5 NA NA NOT_NAMED 1856-08-15 12:00:00 TS 16.5000 -51.8000 main 1187 1142 _____________O -1 16.5000 -51.8000 HU 70 9 274
1856224N14330 1856 5 NA NA NOT_NAMED 1856-08-15 15:00:00 TS 16.5500 -52.2999 main 1142 1105 _____________P -1 16.5500 -52.2999 HU 70 10 276
1856224N14330 1856 5 NA NA NOT_NAMED 1856-08-15 18:00:00 TS 16.6000 -52.8000 main 1105 1070 _____________O -1 16.6000 -52.8000 HU 70 9 274
1856224N14330 1856 5 NA NA NOT_NAMED 1856-08-15 21:00:00 TS 16.6074 -53.2576 main 1062 1028 _____________P -1 16.6074 -53.2576 HU 70 9 270
1856224N14330 1856 5 NA NA NOT_NAMED 1856-08-16 00:00:00 TS 16.6000 -53.7000 main 1028 996 _____________O -1 16.6000 -53.7000 HU 70 9 269
1856224N14330 1856 5 NA NA NOT_NAMED 1856-08-16 03:00:00 TS 16.5924 -54.1501 main 988 956 _____________P -1 16.5924 -54.1501 HU 70 9 270
1856224N14330 1856 5 NA NA NOT_NAMED 1856-08-16 06:00:00 TS 16.6000 -54.6000 main 956 925 _____________O -1 16.6000 -54.6000 HU 70 9 274
1856224N14330 1856 5 NA NA NOT_NAMED 1856-08-16 09:00:00 TS 16.6499 -55.0424 main 925 896 _____________P -1 16.6499 -55.0424 HU 72 9 277
1856224N14330 1856 5 NA NA NOT_NAMED 1856-08-16 12:00:00 TS 16.7000 -55.5000 main 896 861 _____________O -1 16.7000 -55.5000 HU 75 9 273
1856224N14330 1856 5 NA NA NOT_NAMED 1856-08-16 15:00:00 TS 16.6925 -56.0002 main 861 829 _____________P -1 16.6925 -56.0002 HU 75 10 270
1856224N14330 1856 5 NA NA NOT_NAMED 1856-08-16 18:00:00 TS 16.7000 -56.5000 main 829 810 _____________O -1 16.7000 -56.5000 HU 75 9 275
1856224N14330 1856 5 NA NA NOT_NAMED 1856-08-16 21:00:00 TS 16.7774 -56.9575 main 808 795 _____________P -1 16.7774 -56.9575 HU 75 9 283
1856224N14330 1856 5 NA NA NOT_NAMED 1856-08-17 00:00:00 TS 16.9000 -57.4000 main 795 785 _____________O -1 16.9000 -57.4000 HU 75 9 287
1856224N14330 1856 5 NA NA NOT_NAMED 1856-08-17 03:00:00 TS 17.0424 -57.8425 main 785 781 _____________P -1 17.0424 -57.8425 HU 75 9 289
1856224N14330 1856 5 NA NA NOT_NAMED 1856-08-17 06:00:00 TS 17.2000 -58.3000 main 781 727 _____________O -1 17.2000 -58.3000 HU 75 9 288
1856224N14330 1856 5 NA NA NOT_NAMED 1856-08-17 09:00:00 TS 17.3274 -58.7853 main 727 671 _____________P -1 17.3274 -58.7853 HU 77 10 287
1856224N14330 1856 5 NA NA NOT_NAMED 1856-08-17 12:00:00 TS 17.5000 -59.3000 main 671 615 _____________O -1 17.5000 -59.3000 HU 80 11 294
1856224N14330 1856 5 NA NA NOT_NAMED 1856-08-17 15:00:00 TS 17.7775 -59.8499 main 615 549 _____________P -1 17.7775 -59.8499 HU 80 12 300
1856224N14330 1856 5 NA NA NOT_NAMED 1856-08-17 18:00:00 TS 18.1000 -60.4000 main 549 495 _____________O -1 18.1000 -60.4000 HU 80 12 302
1856224N14330 1856 5 NA NA NOT_NAMED 1856-08-17 21:00:00 TS 18.3997 -60.9003 main 495 444 _____________P -1 18.3997 -60.9003 HU 80 11 302
1856224N14330 1856 5 NA NA NOT_NAMED 1856-08-18 00:00:00 TS 18.7000 -61.4000 main 444 395 _____________O -1 18.7000 -61.4000 HU 80 12 301
1856224N14330 1856 5 NA NA NOT_NAMED 1856-08-18 03:00:00 TS 19.0075 -61.9575 main 385 341 _____________P -1 19.0075 -61.9575 HU 80 12 300
1856224N14330 1856 5 NA NA NOT_NAMED 1856-08-18 06:00:00 TS 19.3000 -62.5000 main 341 309 _____________O -1 19.3000 -62.5000 HU 80 11 299
1856224N14330 1856 5 NA NA NOT_NAMED 1856-08-18 09:00:00 TS 19.5197 -62.9507 main 299 279 _____________P -1 19.5197 -62.9507 HU 82 10 300
1856224N14330 1856 5 NA NA NOT_NAMED 1856-08-18 12:00:00 TS 19.8000 -63.4000 main 279 268 _____________O -1 19.8000 -63.4000 HU 85 12 308
1856224N14330 1856 5 NA NA NOT_NAMED 1856-08-18 15:00:00 TS 20.2550 -63.9424 main 277 270 _____________P -1 20.2550 -63.9424 HU 85 14 314
1856224N14330 1856 5 NA NA NOT_NAMED 1856-08-18 18:00:00 TS 20.8000 -64.5000 main 292 292 _____________O -1 20.8000 -64.5000 HU 85 15 318
1856224N14330 1856 5 NA NA NOT_NAMED 1856-08-18 21:00:00 TS 21.3423 -65.0079 main 330 330 _____________P -1 21.3423 -65.0079 HU 85 14 320
1856224N14330 1856 5 NA NA NOT_NAMED 1856-08-19 00:00:00 TS 21.9000 -65.5000 main 391 391 _____________O -1 21.9000 -65.5000 HU 85 14 320
1856224N14330 1856 5 NA NA NOT_NAMED 1856-08-19 03:00:00 TS 22.4423 -66.0005 main 447 447 _____________P -1 22.4423 -66.0005 HU 85 14 320
1856224N14330 1856 5 NA NA NOT_NAMED 1856-08-19 06:00:00 TS 23.0000 -66.5000 main 505 505 _____________O -1 23.0000 -66.5000 HU 85 15 319
1856224N14330 1856 5 NA NA NOT_NAMED 1856-08-19 09:00:00 TS 23.5778 -67.0891 main 531 531 _____________P -1 23.5778 -67.0891 HU 87 15 323
1856224N14330 1856 5 NA NA NOT_NAMED 1856-08-19 12:00:00 TS 24.2000 -67.5000 main 575 575 _____________O -1 24.2000 -67.5000 HU 90 14 345
1856224N14330 1856 5 NA NA NOT_NAMED 1856-08-19 15:00:00 TS 24.8848 -67.4839 main 645 645 _____________P -1 24.8848 -67.4839 HU 90 14 7
1856224N14330 1856 5 NA NA NOT_NAMED 1856-08-19 18:00:00 TS 25.6000 -67.3000 main 725 725 _____________O -1 25.6000 -67.3000 HU 90 14 8
1856224N14330 1856 5 NA NA NOT_NAMED 1856-08-19 21:00:00 TS 26.3000 -67.2497 main 801 801 _____________P -1 26.3000 -67.2497 HU 87 14 4
1856224N14330 1856 5 NA NA NOT_NAMED 1856-08-20 00:00:00 TS 27.0000 -67.2000 main 875 875 _____________O -1 27.0000 -67.2000 HU 85 14 5
1856224N14330 1856 5 NA NA NOT_NAMED 1856-08-20 03:00:00 TS 27.7075 -67.1075 main 939 939 _____________P -1 27.7075 -67.1075 HU 85 14 7
1856224N14330 1856 5 NA NA NOT_NAMED 1856-08-20 06:00:00 TS 28.4000 -67.0000 main 1006 1006 _____________O -1 28.4000 -67.0000 HU 85 14 7
1856224N14330 1856 5 NA NA NOT_NAMED 1856-08-20 09:00:00 TS 29.0724 -66.9146 main 1074 1058 _____________P -1 29.0724 -66.9146 HU 85 13 8
1856224N14330 1856 5 NA NA NOT_NAMED 1856-08-20 12:00:00 TS 29.7000 -66.8000 main 1058 1036 _____________O -1 29.7000 -66.8000 HU 85 12 12
1856224N14330 1856 5 NA NA NOT_NAMED 1856-08-20 15:00:00 TS 30.2650 -66.6150 main 1029 1009 _____________P -1 30.2650 -66.6150 HU 85 12 17
1856224N14330 1856 5 NA NA NOT_NAMED 1856-08-20 18:00:00 TS 30.8000 -66.4000 main 1010 987 _____________O -1 30.8000 -66.4000 HU 85 11 15
1856224N14330 1856 5 NA NA NOT_NAMED 1856-08-20 21:00:00 TS 31.3494 -66.2660 main 987 971 _____________P -1 31.3494 -66.2660 HU 82 12 17
1856224N14330 1856 5 NA NA NOT_NAMED 1856-08-21 00:00:00 TS 31.9000 -66.0000 main 976 971 _____________O -1 31.9000 -66.0000 HU 80 13 33
1856224N14330 1856 5 NA NA NOT_NAMED 1856-08-21 03:00:00 TS 32.4581 -65.4107 main 997 997 _____________P -1 32.4581 -65.4107 HU 80 16 45
1856224N14330 1856 5 NA NA NOT_NAMED 1856-08-21 06:00:00 TS 33.0000 -64.7000 main 1036 1036 _____________O -1 33.0000 -64.7000 HU 80 15 47
1856224N14330 1856 5 NA NA NOT_NAMED 1856-08-21 09:00:00 TS 33.4540 -64.1269 main 1049 1028 _____________P -1 33.4540 -64.1269 HU 80 14 45
1856224N14330 1856 5 NA NA NOT_NAMED 1856-08-21 12:00:00 TS 34.0000 -63.5000 main 1028 990 _____________O -1 34.0000 -63.5000 HU 80 18 40
1856224N14330 1856 5 NA NA NOT_NAMED 1856-08-21 15:00:00 TS 34.8031 -62.7681 main 990 915 _____________P -1 34.8031 -62.7681 HU 80 22 39
1856224N14330 1856 5 NA NA NOT_NAMED 1856-08-21 18:00:00 TS 35.7000 -61.8000 main 917 882 _____________O -1 35.7000 -61.8000 HU 80 26 49
1856224N14330 1856 5 NA NA NOT_NAMED 1856-08-21 21:00:00 TS 36.5192 -60.3659 main 882 865 _____________P -1 36.5192 -60.3659 HU 80 28 55
1856224N14330 1856 5 NA NA NOT_NAMED 1856-08-22 00:00:00 TS 37.3000 -59.0000 main 870 832 _____________O -1 37.3000 -59.0000 HU 80 23 48
1856224N14330 1856 5 NA NA NOT_NAMED 1856-08-22 03:00:00 TS 38.0394 -58.2746 main 832 761 _____________P -1 38.0394 -58.2746 HU 80 18 32
1856224N14330 1856 5 NA NA NOT_NAMED 1856-08-22 06:00:00 TS 38.8000 -57.8000 main 761 699 _____________O -1 38.8000 -57.8000 HU 80 18 28
1856224N14330 1856 5 NA NA NOT_NAMED 1856-08-22 09:00:00 TS 39.6195 -57.2129 main 699 642 _____________P -1 39.6195 -57.2129 HU 77 19 29
1856224N14330 1856 5 NA NA NOT_NAMED 1856-08-22 12:00:00 TS 40.5000 -56.6000 main 637 585 _____________O -1 40.5000 -56.6000 HU 75 21 28
1856224N14330 1856 5 NA NA NOT_NAMED 1856-08-22 15:00:00 TS 41.4413 -55.9644 main 585 494 _____________P -1 41.4413 -55.9644 HU 72 22 29
1856224N14330 1856 5 NA NA NOT_NAMED 1856-08-22 18:00:00 TS 42.4000 -55.2000 main 483 369 _____________O -1 42.4000 -55.2000 HU 70 23 35
1856224N14330 1856 5 NA NA NOT_NAMED 1856-08-22 21:00:00 TS 43.3086 -54.1727 main 369 266 _____________P -1 43.3086 -54.1727 HU 67 24 40
1856224N14330 1856 5 NA NA NOT_NAMED 1856-08-23 00:00:00 TS 44.2000 -53.1000 main 266 190 _____________O -1 44.2000 -53.1000 HU 65 23 38
1856224N14330 1856 5 NA NA NOT_NAMED 1856-08-23 03:00:00 TS 45.0984 -52.2231 main 183 151 _____________P -1 45.0984 -52.2231 HU 62 22 34
1856224N14330 1856 5 NA NA NOT_NAMED 1856-08-23 06:00:00 ET 46.0000 -51.4000 main 151 144 _____________O -1 46.0000 -51.4000 EX 60 22 33
1856224N14330 1856 5 NA NA NOT_NAMED 1856-08-23 09:00:00 ET 46.9019 -50.5272 main 171 167 _____________P -1 46.9019 -50.5272 EX 55 22 34
1856224N14330 1856 5 NA NA NOT_NAMED 1856-08-23 12:00:00 ET 47.8000 -49.6000 main 226 _____________O -1 47.8000 -49.6000 EX 50 22 35

About IBTrACS Database

This database is a web-friendly format of International Best Track Archive for Climate Stewardship (IBTrACS), a global best track data archive curated by NOAA dating back to 1842.

Updated: 2021-10-21